Date,TemperatureHighF,TemperatureAvgF,TemperatureLowF,DewpointHighF,DewpointAvgF,DewpointLowF,HumidityHigh,HumidityAvg,HumidityLow,PressureMaxIn,PressureMinIn,WindSpeedMaxMPH,WindSpeedAvgMPH,GustSpeedMaxMPH,PrecipitationSumIn
2013-1-3,26.0,17.7,11.9,19.0,13.6,8.0,100,84,70,30.58,30.47,2,0,0,0.00
2013-1-4,22.2,19.7,15.4,19.0,16.7,13.0,100,88,76,30.60,30.49,4,0,0,0.00
2013-1-5,25.3,22.5,15.9,24.0,21.6,13.0,100,96,85,30.59,30.29,2,0,0,0.00
2013-1-6,24.2,23.2,22.2,24.0,23.2,22.0,100,100,100,30.29,30.22,1,0,0,0.00
2013-1-7,29.7,26.3,22.4,30.0,26.3,22.0,100,100,99,30.10,29.93,0,0,0,0.44
2013-1-8,34.4,27.7,21.0,34.0,27.7,21.0,100,100,100,30.25,29.89,2,0,0,0.09
2013-1-9,41.1,36.4,28.8,39.0,32.8,28.0,100,88,65,29.89,29.61,11,2,0,0.04
2013-1-10,29.5,26.3,20.8,30.0,23.5,14.0,100,90,61,30.08,29.82,12,2,0,0.05
2013-1-11,27.9,17.6,9.7,21.0,13.8,5.0,100,86,59,30.43,30.08,5,1,0,0.06
2013-1-12,23.8,11.8,5.8,7.0,3.5,0.0,82,70,43,30.56,30.38,5,0,0,0.00
2013-1-13,18.3,10.3,3.7,6.0,2.4,-3.0,87,71,54,30.68,30.50,4,0,0,0.00
2013-1-14,17.2,16.4,14.6,13.0,11.6,10.0,84,81,78,30.64,30.51,1,0,0,0.00
2013-1-15,20.2,18.1,16.2,19.0,16.5,12.0,100,94,82,30.77,30.64,2,0,0,0.00
2013-1-16,23.2,21.1,18.6,23.0,21.2,19.0,100,100,100,30.76,30.71,2,0,0,0.00
2013-1-17,24.5,20.1,16.2,25.0,20.1,16.0,100,100,100,30.72,30.52,2,0,0,0.01
2013-1-18,27.3,19.4,14.4,25.0,19.1,14.0,100,99,83,30.55,30.39,3,0,0,0.00
2013-1-19,31.3,19.6,13.8,25.0,18.2,14.0,100,95,66,30.63,30.53,2,1,0,0.00
2013-1-20,32.4,21.1,15.6,25.0,18.6,16.0,100,91,60,30.69,30.57,5,1,0,0.00
2013-1-21,31.6,19.4,13.5,19.0,15.8,12.0,100,88,56,30.57,30.43,5,1,0,0.01
2013-1-22,24.1,18.4,11.7,21.0,16.2,9.0,100,91,77,30.49,30.33,2,0,0,0.00
2013-1-23,29.7,25.5,19.9,28.0,23.3,19.0,100,92,70,30.33,30.05,4,0,0,0.00
2013-1-24,27.0,24.4,22.5,27.0,24.5,23.0,100,100,100,30.37,30.12,2,0,0,0.11
2013-1-25,31.8,28.7,24.2,32.0,28.8,24.0,100,100,100,30.30,30.02,0,0,0,0.02
2013-1-26,31.6,30.4,28.4,32.0,30.4,28.0,100,100,100,30.03,29.97,2,0,0,0.02
2013-1-27,28.2,25.7,24.1,28.0,25.8,24.0,100,100,100,30.08,30.02,5,0,0,0.00
2013-1-28,26.7,24.3,22.1,27.0,24.2,22.0,100,100,100,30.06,29.97,2,0,0,0.05
2013-1-29,33.1,27.3,21.9,30.0,25.6,22.0,100,94,67,30.28,29.99,7,1,0,0.02
2013-1-30,35.6,29.8,26.4,36.0,29.8,26.0,100,100,97,30.34,30.22,10,0,0,0.04
2013-1-31,32.5,29.1,25.6,33.0,29.1,26.0,100,100,100,30.38,30.29,4,0,0,0.00
2013-2-1,37.0,29.4,24.5,37.0,29.5,25.0,100,100,100,30.59,30.32,3,0,0,0.00
2013-2-2,35.5,25.8,19.4,36.0,25.9,19.0,100,100,97,30.66,30.39,2,0,0,0.00
2013-2-3,31.0,27.7,23.5,31.0,27.8,24.0,100,100,100,30.40,30.21,3,0,0,0.00
2013-2-4,30.6,29.1,27.9,31.0,29.2,28.0,100,100,100,30.22,30.12,3,0,0,0.00
2013-2-5,36.8,31.4,28.5,37.0,31.4,29.0,100,100,100,30.11,29.87,5,0,0,0.00
2013-2-6,36.5,30.9,25.4,35.0,30.3,25.0,100,98,82,30.12,29.95,5,0,0,0.00
2013-2-7,34.9,32.4,30.4,35.0,32.4,30.0,100,100,100,30.00,29.88,2,0,0,0.02
2013-2-8,37.6,29.9,22.7,32.0,28.1,23.0,100,93,65,30.11,30.01,7,1,0,0.01
2013-2-9,39.5,27.6,21.6,28.0,24.3,22.0,100,89,52,30.19,30.00,7,1,0,0.00
2013-2-10,39.3,27.3,20.2,29.0,22.4,19.0,100,85,45,30.29,30.16,5,1,0,0.00
2013-2-11,29.0,26.1,21.3,28.0,26.2,21.0,100,100,97,30.25,30.16,5,0,0,0.00
2013-2-12,33.4,29.2,27.0,31.0,28.6,27.0,100,98,79,30.25,30.10,5,0,0,0.00
2013-2-13,42.1,31.7,25.3,34.0,25.5,19.0,100,82,40,30.32,30.10,12,2,0,0.00
2013-2-14,39.8,30.1,24.2,24.0,22.1,19.0,95,74,47,30.51,30.31,10,1,0,0.00
2013-2-15,42.1,31.5,25.6,30.0,24.5,22.0,100,77,47,30.54,30.24,11,1,0,0.00
2013-2-16,36.5,31.7,27.0,33.0,29.8,27.0,100,93,73,30.24,29.87,6,0,0,0.00
2013-2-17,39.5,31.1,20.8,32.0,22.5,8.0,100,74,28,30.09,29.88,12,2,0,0.08
2013-2-18,36.5,27.7,19.9,28.0,19.6,13.0,100,74,49,30.10,29.76,6,0,0,0.01
2013-2-19,32.7,29.3,26.7,33.0,29.2,27.0,100,100,96,29.85,29.71,2,0,0,0.08
2013-2-20,35.8,25.7,17.3,26.0,19.6,12.0,100,81,39,29.99,29.85,7,1,0,0.02
2013-2-21,29.5,24.6,18.9,30.0,24.6,19.0,100,100,94,30.00,29.93,5,0,0,0.03
2013-2-22,34.6,29.9,26.0,35.0,29.9,26.0,100,100,100,29.95,29.49,10,1,0,0.08
2013-2-23,37.9,29.5,22.7,30.0,23.0,17.0,100,80,45,30.18,29.58,12,3,0,0.04
2013-2-24,33.2,27.1,19.2,27.0,22.8,19.0,100,85,61,30.28,30.02,6,1,0,0.02
2013-2-25,33.7,30.5,27.9,34.0,29.9,24.0,100,98,79,30.05,29.82,6,0,0,0.12
2013-2-26,37.0,30.8,25.3,29.0,23.8,15.0,100,78,44,30.26,30.05,6,1,0,0.00
2013-2-27,39.6,33.8,26.7,24.0,21.8,19.0,82,63,45,30.25,30.18,5,1,0,0.00
2013-2-28,36.3,32.5,26.9,36.0,32.6,27.0,100,100,100,30.31,30.26,2,0,0,0.09
2013-3-1,45.7,41.6,35.8,45.0,40.7,36.0,100,96,83,30.25,30.19,5,1,0,0.07
2013-3-2,45.7,41.4,35.8,43.0,37.2,33.0,100,85,68,30.13,29.74,10,1,0,0.00
2013-3-3,37.9,32.4,25.0,38.0,17.4,10.0,100,56,34,30.18,29.74,18,5,0,0.00
2013-3-4,40.1,30.3,20.5,21.0,12.5,3.0,96,52,23,30.31,30.08,7,1,0,0.00
2013-3-5,35.3,29.6,23.8,28.0,17.6,8.0,93,63,37,30.10,29.84,2,0,0,0.00
2013-3-6,34.7,31.3,29.4,35.0,29.0,20.0,100,92,65,29.83,29.61,2,0,0,0.07
2013-3-7,36.0,33.0,31.0,36.0,33.1,31.0,100,100,100,30.04,29.75,4,0,0,0.29
2013-3-8,41.5,34.2,30.3,35.0,31.4,26.0,100,91,55,30.09,29.96,7,0,0,0.00
2013-3-9,47.1,33.3,24.1,31.0,24.0,17.0,100,74,33,30.37,30.10,11,2,0,0.00
2013-3-10,41.5,32.5,26.6,29.0,26.7,24.0,100,81,57,30.36,30.18,8,1,0,0.00
2013-3-11,41.9,33.0,25.3,29.0,18.3,7.0,100,62,24,30.32,30.17,12,2,0,0.00
2013-3-12,46.4,35.5,30.6,45.0,34.0,16.0,100,95,49,30.17,29.94,2,0,0,0.06
2013-3-13,47.7,43.2,36.8,44.0,40.3,37.0,100,90,68,30.08,30.01,5,1,0,0.03
2013-3-14,49.6,43.3,39.3,50.0,42.3,35.0,100,96,64,30.05,29.86,2,0,0,0.01
2013-3-15,51.9,40.9,33.1,41.0,34.4,28.0,100,82,40,30.06,29.90,7,1,0,0.01
2013-3-16,44.2,36.4,30.4,39.0,32.7,26.0,100,88,49,29.96,29.54,16,1,0,0.01
2013-3-17,40.8,32.9,26.3,30.0,13.8,-7.0,100,53,13,29.93,29.57,17,4,0,0.02
2013-3-18,36.9,29.3,23.9,23.0,17.2,11.0,80,61,43,30.15,29.89,10,1,0,0.00
2013-3-19,42.8,31.0,19.5,19.0,12.8,2.0,94,53,20,30.28,29.80,7,1,0,0.00
2013-3-20,44.8,36.2,31.0,45.0,30.4,9.0,100,83,32,29.80,29.37,10,2,0,0.20
2013-3-21,36.8,31.4,21.6,25.0,15.1,8.0,76,53,30,30.00,29.61,19,3,0,0.00
2013-3-22,35.2,25.1,16.9,21.0,12.2,-1.0,100,64,22,30.25,30.00,7,1,0,0.00
2013-3-23,38.2,26.1,15.2,17.0,9.3,0.0,81,54,22,30.37,30.25,7,1,0,0.00
2013-3-24,41.1,29.5,18.4,17.0,13.2,7.0,82,54,26,30.38,30.19,11,1,0,0.00
2013-3-25,44.5,31.6,19.2,17.0,13.6,9.0,79,52,25,30.21,30.00,10,1,0,0.00
2013-3-26,51.9,35.7,22.7,18.0,15.1,8.0,74,48,19,30.05,29.91,7,1,0,0.00
2013-3-27,54.1,40.4,28.7,26.0,20.9,16.0,70,48,25,29.99,29.88,7,1,0,0.00
2013-3-28,53.5,43.0,33.2,39.0,28.9,25.0,100,59,37,30.02,29.91,8,1,0,0.00
2013-3-29,56.7,42.6,31.0,42.0,32.3,23.0,100,73,28,30.14,30.02,10,1,0,0.00
2013-3-30,59.5,44.9,31.5,40.0,31.0,23.0,100,65,27,30.24,30.05,9,2,0,0.00
2013-3-31,66.1,47.4,32.2,36.0,29.6,23.0,100,58,21,30.08,29.86,8,2,0,0.00
2013-4-1,67.8,49.8,33.4,35.0,30.6,24.0,100,54,20,29.95,29.81,11,2,0,0.00
2013-4-2,60.1,47.7,37.6,39.0,36.4,33.0,100,67,41,29.96,29.84,15,2,0,0.00
2013-4-3,58.4,46.0,35.2,44.0,37.9,32.0,100,77,37,30.01,29.90,10,2,0,0.00
2013-4-4,55.6,44.7,37.5,47.0,40.4,35.0,100,87,47,29.92,29.61,3,0,0,0.14
2013-4-5,52.0,44.6,40.5,45.0,41.4,36.0,100,90,58,29.73,29.62,14,2,0,0.03
2013-4-6,51.0,44.3,36.5,44.0,33.5,19.0,100,71,31,29.75,29.65,18,3,0,0.07
2013-4-7,39.6,36.1,32.8,40.0,36.1,33.0,100,100,96,29.69,29.48,3,0,0,0.41
2013-4-8,44.9,37.2,32.5,38.0,33.9,28.0,100,90,53,30.16,29.68,5,0,0,0.06
2013-4-9,46.4,39.3,32.9,39.0,33.1,27.0,100,81,48,30.27,30.13,10,1,0,0.01
2013-4-10,46.0,41.2,35.3,46.0,39.1,33.0,100,92,69,30.11,29.70,6,1,0,0.11
2013-4-11,50.2,38.8,29.7,36.0,26.8,16.0,100,68,30,30.06,29.95,12,3,0,0.00
2013-4-12,42.3,33.8,27.2,38.0,28.3,21.0,100,82,45,30.06,29.48,5,0,0,0.19
2013-4-13,40.8,32.6,27.6,35.0,29.7,22.0,100,91,48,29.79,29.41,12,3,0,0.07
2013-4-14,43.2,33.1,27.6,37.0,30.0,19.0,100,91,39,29.91,29.79,8,1,0,0.05
2013-4-15,38.9,31.5,21.9,28.0,16.1,9.0,100,58,29,30.17,29.88,2,0,0,0.01
2013-4-16,44.2,32.5,23.3,14.0,8.4,0.0,63,40,17,30.35,30.17,6,0,0,0.00
2013-4-17,49.5,35.5,22.1,19.0,11.2,2.0,69,41,16,30.40,30.22,12,2,0,0.00
2013-4-18,53.8,41.9,28.4,38.0,22.1,17.0,87,48,27,30.25,30.01,12,1,0,0.00
2013-4-19,52.3,43.5,38.5,49.0,41.4,35.0,100,94,52,30.01,29.79,8,1,0,0.07
2013-4-20,52.8,43.8,34.1,42.0,32.4,22.0,100,68,37,29.98,29.85,17,2,0,0.02
2013-4-21,48.9,39.1,29.1,30.0,15.3,-5.0,80,43,11,30.23,29.99,7,1,0,0.00
2013-4-22,51.4,37.3,24.2,18.0,10.7,0.0,71,39,12,30.45,30.25,13,2,0,0.00
2013-4-23,52.9,39.4,28.7,22.0,16.1,10.0,60,41,23,30.29,30.14,10,1,0,0.00
2013-4-24,59.0,44.3,29.5,26.0,20.6,14.0,75,44,17,30.21,29.85,12,2,0,0.00
2013-4-25,65.5,49.5,33.8,28.0,23.6,16.0,76,42,15,29.91,29.83,17,3,0,0.00
2013-4-26,67.3,55.2,39.9,33.0,26.5,17.0,72,37,16,30.02,29.88,11,2,0,0.00
2013-4-27,62.0,53.4,44.2,33.0,23.6,17.0,55,33,20,29.91,29.75,26,3,0,0.00
2013-4-28,56.5,46.6,33.2,26.0,21.8,13.0,70,40,21,29.94,29.64,16,3,0,0.00
2013-4-29,45.4,39.5,28.5,26.0,16.5,5.0,63,42,20,29.91,29.54,20,5,0,0.00
2013-4-30,46.2,34.9,25.7,20.0,13.3,-1.0,75,45,14,30.32,29.91,16,2,0,0.00
2013-5-1,54.8,39.6,23.6,19.0,9.9,1.0,59,34,13,30.52,30.32,11,2,0,0.00
2013-5-2,61.5,47.5,30.6,28.0,19.6,15.0,61,36,17,30.52,30.16,11,2,0,0.00
2013-5-3,68.3,53.0,37.3,44.0,32.1,22.0,100,53,18,30.22,30.07,7,1,0,0.00
2013-5-4,69.8,55.1,40.2,32.0,25.9,16.0,71,37,13,30.24,29.97,7,1,0,0.00
2013-5-5,76.0,58.1,39.3,31.0,24.7,15.0,65,33,11,30.00,29.74,7,1,0,0.00
2013-5-6,81.6,62.0,43.9,36.0,30.9,25.0,64,35,13,29.82,29.56,7,1,0,0.00
2013-5-7,81.2,64.5,46.0,41.0,34.5,29.0,71,37,15,29.74,29.63,5,1,0,0.00
2013-5-8,81.1,65.5,51.3,43.0,35.4,26.0,64,36,14,29.85,29.71,11,2,0,0.00
2013-5-9,82.6,64.6,46.7,40.0,30.2,1.0,73,35,5,29.98,29.84,5,1,0,0.00
2013-5-10,82.0,65.2,47.4,38.0,31.4,23.0,65,32,12,30.05,29.90,7,2,0,0.00
2013-5-11,78.6,65.0,51.9,45.0,34.8,24.0,65,36,15,29.97,29.84,10,2,0,0.00
2013-5-12,69.8,61.8,55.1,55.0,42.3,35.0,81,50,37,29.86,29.77,13,2,0,0.00
2013-5-13,62.0,55.0,39.8,47.0,38.4,29.0,100,55,35,29.87,29.70,16,3,0,0.11
2013-5-14,55.0,44.4,34.1,40.0,31.7,22.0,100,68,28,30.05,29.90,10,1,0,0.08
2013-5-15,62.4,48.6,34.6,38.0,31.1,19.0,100,58,21,30.02,29.79,10,2,0,0.00
2013-5-16,59.2,48.5,41.1,53.0,44.3,31.0,100,88,46,29.84,29.77,4,0,0,0.38
2013-5-17,64.0,49.4,37.6,52.0,42.1,36.0,100,80,39,29.84,29.75,6,1,0,0.00
2013-5-18,54.2,47.7,43.1,53.0,47.1,43.0,100,98,72,30.03,29.80,6,0,0,0.24
2013-5-19,60.5,50.1,42.2,51.0,44.5,38.0,100,84,45,30.16,30.04,8,1,0,0.00
2013-5-20,65.0,53.4,40.1,53.0,45.1,40.0,100,78,43,30.18,29.79,7,1,0,0.00
2013-5-21,71.5,53.0,40.5,59.0,44.6,34.0,100,80,27,29.79,29.41,13,2,0,0.59
2013-5-22,41.3,39.2,34.9,41.0,39.3,35.0,100,100,100,29.98,29.62,7,0,0,0.77
2013-5-23,54.2,40.0,31.5,45.0,36.2,31.0,100,89,47,30.01,29.92,5,0,0,0.02
2013-5-24,57.2,43.4,31.3,44.0,34.6,24.0,100,76,30,29.92,29.81,19,2,0,0.01
2013-5-25,57.0,45.3,35.8,45.0,39.2,33.0,100,82,43,29.93,29.87,7,0,0,0.00
2013-5-26,65.0,51.0,35.2,47.0,37.7,29.0,100,67,27,29.93,29.77,11,1,0,0.00
2013-5-27,58.1,51.1,46.5,51.0,45.6,39.0,100,84,50,29.78,29.68,7,1,0,0.01
2013-5-28,59.9,49.9,44.9,53.0,46.6,39.0,100,91,48,29.71,29.65,12,1,0,0.12
2013-5-29,58.1,49.7,45.5,51.0,45.2,37.0,100,86,51,29.70,29.56,11,1,0,0.03
2013-5-30,56.2,47.9,41.5,48.0,42.4,33.0,100,84,41,30.04,29.70,13,2,0,0.13
2013-5-31,62.1,50.0,38.2,54.0,39.8,26.0,100,74,27,30.15,30.02,7,1,0,0.02
2013-6-1,62.6,51.4,41.6,46.0,41.2,31.0,100,73,32,30.14,29.88,7,0,0,0.00
2013-6-2,60.9,50.9,44.8,51.0,44.9,39.0,100,83,45,29.89,29.77,13,1,0,0.19
2013-6-3,66.4,51.3,40.5,54.0,43.6,36.0,100,80,35,29.97,29.83,14,2,0,0.23
2013-6-4,71.3,55.8,41.6,55.0,43.0,33.0,100,70,26,30.08,29.90,7,1,0,0.00
2013-6-5,75.3,61.9,48.3,50.0,43.9,37.0,100,57,26,29.93,29.75,13,2,0,0.00
2013-6-6,77.9,64.3,50.2,46.0,40.9,32.0,84,47,20,29.86,29.71,11,2,0,0.00
2013-6-7,74.9,64.1,55.0,43.0,35.3,16.0,64,37,13,29.74,29.62,16,3,0,0.00
2013-6-8,71.5,59.3,44.3,44.0,35.1,19.0,78,43,21,29.86,29.72,14,2,0,0.00
2013-6-9,67.9,56.0,43.6,49.0,32.7,20.0,100,49,17,29.80,29.70,15,3,0,0.00
2013-6-10,72.8,56.7,41.2,38.0,32.8,22.0,84,46,16,29.75,29.61,10,2,0,0.00
2013-6-11,67.4,56.6,43.6,42.0,34.9,28.0,87,47,26,29.82,29.64,13,2,0,0.00
2013-6-12,66.8,52.8,39.9,35.0,30.8,18.0,77,47,15,29.92,29.82,7,1,0,0.00
2013-6-13,63.7,51.9,39.9,39.0,34.9,27.0,91,55,27,29.95,29.88,11,2,0,0.00
2013-6-14,46.7,46.6,46.5,43.0,42.0,41.0,86,84,82,29.97,29.97,5,2,0,0.00
2013-6-21,56.2,51.7,47.3,54.0,49.6,44.0,100,94,65,30.02,30.00,2,0,0,0.00
2013-6-22,63.1,53.1,42.5,56.0,48.9,43.0,100,88,58,30.02,29.83,4,0,0,0.00
2013-6-23,68.8,57.6,49.8,58.0,51.9,43.0,100,85,41,29.83,29.50,7,1,0,0.06
2013-6-24,61.6,55.5,51.3,62.0,55.6,51.0,100,100,100,29.58,29.45,7,0,0,0.42
2013-6-25,60.9,54.3,49.5,61.0,52.6,47.0,100,94,64,29.75,29.57,5,0,0,0.04
2013-6-26,66.0,57.6,48.5,55.0,47.5,42.0,100,73,45,29.97,29.74,12,2,0,0.01
2013-6-27,68.3,57.2,47.9,62.0,54.6,48.0,100,92,57,30.12,29.97,3,0,0,0.00
2013-6-28,81.1,66.1,53.9,63.0,54.8,44.0,100,73,28,30.13,29.93,12,2,0,0.00
2013-6-29,80.5,66.2,55.3,65.0,57.4,46.0,100,77,31,29.96,29.84,8,0,0,0.00
2013-6-30,85.5,69.1,53.9,65.0,54.1,46.0,100,66,27,29.94,29.82,10,1,0,0.00
2013-7-1,91.0,73.6,57.8,65.0,56.1,48.0,100,60,24,29.90,29.75,7,1,0,0.00
2013-7-2,92.7,77.6,62.3,66.0,55.7,42.0,100,55,18,29.82,29.63,13,2,0,0.00
2013-7-3,83.4,72.8,61.3,50.0,39.2,27.0,62,33,14,29.79,29.65,14,3,0,0.00
2013-7-4,79.9,66.6,53.6,51.0,42.4,35.0,81,44,22,29.72,29.59,10,2,0,0.00
2013-7-5,72.7,62.3,51.9,56.0,47.5,39.0,100,62,31,29.72,29.62,10,1,0,0.00
2013-7-6,75.8,60.0,50.1,58.0,44.8,31.0,100,67,20,29.81,29.68,6,1,0,0.00
2013-7-7,81.6,64.2,48.5,53.0,41.5,29.0,94,49,18,29.80,29.66,8,1,0,0.00
2013-7-8,69.4,56.9,51.9,61.0,52.8,43.0,100,88,46,29.98,29.70,17,2,0,0.23
2013-7-9,80.1,64.5,48.6,61.0,48.6,38.0,100,65,22,30.03,29.84,10,2,0,0.00
2013-7-10,84.3,69.9,54.1,54.0,42.7,28.0,96,44,13,29.84,29.52,16,2,0,0.00
2013-7-11,75.4,64.7,53.2,41.0,30.5,13.0,53,31,11,29.69,29.55,17,3,0,0.00
2013-7-12,64.7,55.1,44.2,43.0,31.8,24.0,78,44,22,29.85,29.69,7,1,0,0.00
2013-7-13,73.2,58.7,44.3,47.0,37.6,28.0,100,52,20,30.01,29.85,10,1,0,0.00
2013-7-14,77.4,63.1,46.5,49.0,34.6,23.0,100,42,14,29.99,29.72,14,2,0,0.00
2013-7-15,74.4,61.7,51.1,43.0,35.2,25.0,66,39,21,29.90,29.71,10,2,0,0.00
2013-7-16,82.8,64.8,45.8,49.0,43.2,36.0,100,52,20,29.94,29.73,3,0,0,0.00
2013-7-17,77.6,65.6,56.2,66.0,52.1,39.0,100,65,39,29.98,29.73,10,1,0,0.04
2013-7-18,82.6,65.8,51.0,62.0,49.5,39.0,100,64,23,30.04,29.88,7,1,0,0.00
2013-7-19,85.5,69.7,54.1,57.0,46.8,36.0,100,51,18,29.94,29.74,8,1,0,0.00
2013-7-20,86.3,70.2,55.1,57.0,42.1,25.0,100,43,11,29.78,29.59,10,2,0,0.00
2013-7-21,85.1,70.6,55.3,47.0,38.6,28.0,61,34,15,29.67,29.55,7,1,0,0.00
2013-7-22,85.3,71.0,57.0,49.0,39.7,30.0,67,35,14,29.72,29.57,12,2,0,0.00
2013-7-23,88.2,70.1,56.0,53.0,40.4,27.0,80,39,11,29.84,29.71,12,2,0,0.00
2013-7-24,89.5,71.8,56.7,48.0,39.4,29.0,66,35,12,29.82,29.71,8,2,0,0.00
2013-7-25,89.3,73.5,57.3,47.0,36.3,21.0,66,30,9,29.85,29.74,10,2,0,0.00
2013-7-26,88.4,72.7,56.3,44.0,29.7,8.0,58,25,5,29.88,29.69,12,2,0,0.00
2013-7-27,79.4,69.8,56.6,36.0,27.2,15.0,38,21,9,29.80,29.68,14,3,0,0.00
2013-7-28,78.5,63.5,50.1,44.0,34.5,25.0,59,38,15,29.75,29.67,6,0,0,0.00
2013-7-29,77.9,63.6,52.2,57.0,40.3,28.0,100,50,18,29.82,29.69,12,1,0,0.01
2013-7-30,80.7,65.5,53.6,46.0,35.0,21.0,74,37,12,29.96,29.82,13,2,0,0.00
2013-7-31,82.4,68.1,51.9,45.0,36.7,23.0,64,35,12,30.01,29.79,5,0,0,0.00
2013-8-1,74.7,63.9,55.6,61.0,48.8,37.0,100,63,35,29.79,29.71,5,0,0,0.09
2013-8-2,65.6,58.7,53.2,64.0,58.1,53.0,100,98,78,29.94,29.73,7,0,0,0.01
2013-8-3,72.1,61.3,56.0,66.0,57.0,49.0,100,88,45,29.97,29.88,10,1,0,0.11
2013-8-4,76.3,60.9,51.9,64.0,55.7,49.0,100,87,38,29.95,29.84,12,1,0,0.01
2013-8-5,79.2,63.2,52.0,63.0,51.4,42.0,100,72,28,29.88,29.75,11,1,0,0.00
2013-8-6,82.4,65.9,51.9,59.0,48.6,34.0,100,64,18,29.86,29.70,7,1,0,0.00
2013-8-7,85.1,69.4,53.8,58.0,45.0,28.0,100,50,13,29.79,29.69,11,1,0,0.00
2013-8-8,86.7,69.1,55.1,55.0,42.7,27.0,94,45,12,29.82,29.68,10,1,0,0.00
2013-8-9,89.3,72.5,57.0,48.0,44.1,36.0,68,40,15,29.80,29.63,5,0,0,0.00
2013-8-10,85.5,72.2,62.1,53.0,45.5,34.0,65,42,17,29.82,29.65,6,1,0,0.00
2013-8-11,84.9,72.5,59.5,61.0,45.8,37.0,100,43,18,29.83,29.68,11,2,0,0.02
2013-8-12,81.8,68.6,59.6,70.0,50.9,44.0,89,56,26,29.84,29.72,8,1,0,0.01
2013-8-13,84.5,68.9,53.8,58.0,45.4,28.0,100,53,14,29.91,29.78,14,2,0,0.00
2013-8-14,86.5,70.9,56.6,52.0,43.0,38.0,68,40,18,29.85,29.66,5,0,0,0.00
2013-8-15,78.8,69.4,62.6,51.0,44.0,39.0,61,42,25,29.76,29.65,7,1,0,0.00
2013-8-16,79.9,67.3,57.5,55.0,42.9,34.0,89,44,20,29.83,29.73,7,1,0,0.00
2013-8-17,79.2,66.3,52.6,48.0,41.4,38.0,76,43,25,29.87,29.73,15,2,0,0.00
2013-8-18,79.6,64.8,51.1,57.0,41.7,31.0,100,51,18,29.89,29.77,13,1,0,0.00
2013-8-19,78.8,65.5,52.9,43.0,37.0,30.0,67,38,18,29.83,29.73,12,2,0,0.00
2013-8-20,75.6,60.8,46.4,37.0,29.8,20.0,62,35,13,29.94,29.80,11,2,0,0.00
2013-8-21,80.7,62.9,45.8,37.0,25.9,7.0,66,32,6,30.03,29.86,10,1,0,0.00
2013-8-22,84.3,66.9,49.4,36.0,29.5,20.0,52,27,10,29.90,29.64,8,1,0,0.00
2013-8-23,73.0,61.7,53.1,62.0,48.0,28.0,100,67,25,29.73,29.61,7,0,0,0.08
2013-8-24,75.3,60.8,49.5,63.0,52.3,45.0,100,78,36,29.75,29.61,6,0,0,0.00
2013-8-25,76.0,64.3,54.1,52.0,46.8,41.0,87,57,29,29.79,29.63,6,1,0,0.00
2013-8-26,67.8,61.4,53.2,57.0,50.2,45.0,100,70,45,29.83,29.78,6,0,0,0.01
2013-8-27,77.0,62.0,48.3,56.0,44.5,35.0,100,61,22,29.89,29.69,13,2,0,0.00
2013-8-28,81.6,65.2,50.4,55.0,46.5,41.0,100,57,27,29.77,29.67,7,0,0,0.00
2013-8-29,77.0,65.2,56.0,59.0,49.4,41.0,100,60,28,29.86,29.72,12,1,0,0.00
2013-8-30,72.7,61.7,51.6,56.0,44.4,32.0,100,59,24,29.95,29.83,12,2,0,0.00
2013-8-31,79.0,61.3,46.0,52.0,42.0,33.0,100,57,21,30.02,29.81,8,1,0,0.00
2013-9-1,88.6,67.4,48.9,46.0,37.5,26.0,89,41,11,29.85,29.60,7,1,0,0.00
2013-9-2,84.1,68.6,55.7,49.0,42.4,37.0,56,41,20,29.75,29.61,5,0,0,0.00
2013-9-3,83.6,69.2,57.0,57.0,49.9,41.0,99,54,23,29.82,29.73,10,1,0,0.00
2013-9-4,82.8,68.4,56.6,61.0,51.8,44.0,100,61,27,29.84,29.77,12,1,0,0.00
2013-9-5,76.8,67.4,61.6,60.0,52.5,49.0,93,60,39,29.86,29.72,4,0,0,0.00
2013-9-6,63.1,57.6,52.9,62.0,57.6,53.0,100,100,83,30.00,29.70,5,0,0,0.63
2013-9-7,56.6,54.0,51.6,57.0,53.9,52.0,100,100,100,30.01,29.95,2,0,0,0.64
2013-9-8,66.9,56.1,50.2,61.0,54.1,50.0,100,94,61,29.97,29.83,7,0,0,0.00
2013-9-9,77.7,60.8,49.4,64.0,52.5,41.0,100,80,28,29.92,29.79,6,1,0,0.00
2013-9-10,80.3,63.6,52.3,63.0,49.9,41.0,100,69,26,29.94,29.83,7,1,0,0.00
2013-9-11,84.9,66.3,51.1,54.0,47.5,41.0,100,58,22,30.02,29.88,2,0,0,0.00
2013-9-12,87.8,68.1,54.4,58.0,47.3,37.0,100,55,17,29.95,29.70,5,0,0,0.00
2013-9-13,87.2,69.0,55.3,58.0,47.1,37.0,100,52,18,29.75,29.57,7,1,0,0.00
2013-9-14,85.5,68.9,56.2,59.0,46.5,37.0,93,50,18,29.79,29.64,2,0,0,0.00
2013-9-15,80.3,65.6,56.7,60.0,46.3,40.0,100,52,24,29.74,29.47,24,0,0,0.01
2013-9-16,66.9,58.0,50.5,62.0,54.2,45.0,100,89,47,29.71,29.54,14,1,0,0.04
2013-9-17,64.7,53.4,48.6,60.0,51.0,43.0,100,93,48,29.71,29.53,5,0,0,0.43
2013-9-18,58.7,50.0,42.6,52.0,45.4,34.0,100,88,41,29.97,29.60,10,2,0,0.24
2013-9-19,64.5,49.6,39.9,52.0,41.4,34.0,100,78,33,30.08,29.86,6,1,0,0.00
2013-9-20,71.8,53.7,39.1,50.0,39.9,26.0,100,68,19,29.86,29.45,6,1,0,0.00
2013-9-21,63.1,54.7,48.8,53.0,44.2,38.0,100,71,42,29.55,29.39,6,0,0,0.00
2013-9-22,55.6,48.4,42.9,52.0,45.2,35.0,100,91,48,29.60,29.50,14,1,0,0.02
2013-9-23,54.7,47.7,40.3,48.0,40.7,36.0,100,79,53,29.79,29.59,12,1,0,0.00
2013-9-24,50.7,43.6,36.8,49.0,43.0,37.0,100,98,76,29.79,29.68,7,0,0,0.03
2013-9-25,43.6,40.3,36.0,44.0,40.3,36.0,100,100,100,29.88,29.72,2,0,0,0.04
2013-9-26,53.8,43.7,37.3,48.0,38.7,27.0,100,87,36,30.00,29.89,7,1,0,0.01
2013-9-27,45.5,39.9,34.0,45.0,39.8,34.0,100,99,88,29.95,29.81,7,1,0,0.00
2013-9-28,53.1,47.7,41.8,53.0,47.7,42.0,100,100,100,29.81,29.27,12,2,0,0.23
2013-9-29,50.8,46.0,43.1,51.0,44.3,39.0,100,94,76,29.51,29.23,17,2,0,0.11
2013-9-30,50.2,45.1,38.9,46.0,36.4,28.0,100,74,49,29.73,29.21,14,3,0,0.07
2013-10-1,47.3,40.4,31.8,41.0,34.3,29.0,100,81,54,30.03,29.73,7,1,0,0.00
2013-10-2,44.3,36.2,31.2,41.0,35.2,31.0,100,96,70,30.11,30.02,6,1,0,0.00
2013-10-3,54.8,39.0,29.7,41.0,31.1,21.0,100,80,27,30.36,30.07,5,0,0,0.00
2013-10-4,55.0,39.8,29.1,39.0,31.3,27.0,100,77,36,30.49,30.34,7,2,0,0.00
2013-10-5,55.3,44.3,36.6,43.0,36.8,31.0,100,79,41,30.36,30.20,5,0,0,0.00
2013-10-6,61.5,47.0,35.3,41.0,35.0,30.0,100,68,32,30.21,29.82,5,0,0,0.00
2013-10-7,56.0,44.1,37.5,45.0,36.6,28.0,100,78,40,29.83,29.66,20,1,0,0.05
2013-10-8,48.2,39.1,34.0,44.0,37.9,32.0,100,96,54,30.00,29.72,6,0,0,0.03
2013-10-9,52.6,39.6,29.7,43.0,34.8,29.0,100,86,43,30.10,29.78,7,0,0,0.00
2013-10-10,47.7,40.2,30.9,41.0,38.1,31.0,100,93,54,29.96,29.73,7,1,0,0.00
2013-10-11,48.9,35.1,27.0,37.0,27.5,17.0,100,80,30,30.10,29.97,5,1,0,0.00
2013-10-12,51.6,40.2,30.1,36.0,27.4,20.0,100,64,32,30.14,29.99,5,0,0,0.00
2013-10-13,52.6,37.2,27.5,35.0,25.5,16.0,100,70,24,30.30,30.13,7,1,0,0.00
2013-10-14,53.1,36.7,27.3,34.0,26.8,16.0,100,74,24,30.42,30.27,4,1,0,0.00
2013-10-15,51.7,37.2,28.1,36.0,30.4,24.0,100,81,36,30.41,30.12,5,1,0,0.00
2013-10-16,54.8,41.3,33.4,42.0,36.5,27.0,100,87,36,30.16,30.05,7,0,0,0.00
2013-10-17,54.7,39.2,29.7,40.0,30.8,23.0,100,78,30,30.25,30.12,5,1,0,0.00
2013-10-18,54.1,39.1,29.5,40.0,33.4,28.0,100,84,42,30.28,30.12,4,1,0,0.00
2013-10-19,55.0,40.9,32.7,43.0,36.1,33.0,100,87,43,30.14,30.01,5,1,0,0.00
2013-10-20,63.2,46.7,35.0,46.0,37.5,34.0,100,76,35,30.12,30.00,12,1,0,0.00
2013-10-21,60.5,44.9,36.9,48.0,40.8,36.0,100,89,41,30.17,30.05,5,1,0,0.00
2013-10-22,60.1,44.4,36.6,51.0,41.2,37.0,100,91,50,30.18,30.05,7,0,0,0.00
2013-10-23,60.2,43.1,35.8,53.0,41.4,36.0,100,95,50,30.16,30.03,5,0,0,0.00
2013-10-24,59.8,44.4,36.6,49.0,40.8,37.0,100,90,47,30.11,29.99,2,0,0,0.00
2013-10-25,56.5,40.6,34.1,48.0,39.2,34.0,100,96,51,30.27,30.07,4,0,0,0.00
2013-10-26,52.8,39.0,29.8,47.0,37.3,30.0,100,95,62,30.32,30.02,3,0,0,0.00
2013-10-27,42.3,39.0,32.4,42.0,35.9,21.0,100,90,48,30.05,29.80,5,0,0,0.08
2013-10-28,44.9,34.8,27.2,22.0,13.4,8.0,68,43,26,30.06,29.93,6,1,0,0.00
2013-10-29,46.5,32.5,24.5,25.0,19.6,15.0,97,62,31,30.01,29.90,5,1,0,0.00
2013-10-30,38.5,30.5,24.2,28.0,23.9,19.0,100,78,48,30.07,29.95,3,0,0,0.00
2013-10-31,48.5,36.8,29.0,37.0,30.8,25.0,100,82,46,30.12,29.97,9,1,0,0.00
2013-11-1,41.9,35.0,29.4,41.0,35.0,29.0,100,100,94,30.22,29.94,5,1,0,0.00
2013-11-2,41.8,38.3,34.4,42.0,38.4,34.0,100,100,95,29.92,29.41,7,1,0,0.44
2013-11-3,34.6,32.1,26.1,34.0,23.6,19.0,100,72,56,29.96,29.64,10,3,0,0.00
2013-11-4,36.2,27.7,22.1,28.0,20.9,15.0,100,78,45,30.15,29.96,5,0,0,0.00
2013-11-5,31.8,28.0,24.5,32.0,28.0,25.0,100,100,100,30.18,30.10,3,0,0,0.06
2013-11-6,31.8,28.6,24.8,32.0,28.8,25.0,100,100,100,30.37,30.19,1,0,0,0.02
2013-11-7,33.7,31.3,28.8,34.0,31.3,29.0,100,100,100,30.28,29.69,1,0,0,0.20
2013-11-8,40.8,33.8,29.8,41.0,33.8,30.0,100,100,93,30.12,29.84,6,1,0,0.03
2013-11-9,37.3,32.7,29.1,37.0,32.9,29.0,100,100,100,30.22,30.12,4,0,0,0.00
2013-11-10,36.6,33.5,32.1,37.0,33.5,32.0,100,100,100,30.26,30.11,0,0,0,0.16
2013-11-11,39.8,34.8,30.4,40.0,34.9,30.0,100,100,100,30.38,30.26,2,0,0,0.01
2013-11-12,38.3,34.6,30.0,38.0,34.7,30.0,100,100,100,30.30,30.24,2,0,0,0.00
2013-11-13,43.3,37.4,33.4,43.0,37.4,33.0,100,100,97,30.28,30.20,5,0,0,0.00
2013-11-14,44.3,35.9,31.5,42.0,34.5,30.0,100,96,57,30.19,29.82,8,1,0,0.00
2013-11-15,33.8,32.1,30.0,34.0,32.2,30.0,100,100,100,29.81,29.20,2,0,0,0.00
2013-11-16,34.7,30.8,26.0,34.0,29.8,21.0,100,96,63,29.59,29.14,14,1,0,0.22
2013-11-17,37.5,32.0,27.3,38.0,32.1,27.0,100,100,100,29.83,29.59,3,0,0,0.05
2013-11-18,39.9,37.9,35.6,40.0,38.0,36.0,100,100,100,29.80,29.51,5,0,0,0.02
2013-11-19,47.4,38.9,27.2,44.0,30.2,4.0,100,75,30,29.80,29.39,14,2,0,0.00
2013-11-20,28.2,19.3,11.2,9.0,-3.0,-14.0,66,40,16,30.53,29.82,10,1,0,0.00
2013-11-21,27.9,15.4,8.6,7.0,3.5,-2.0,80,61,30,30.77,30.53,3,0,0,0.00
2013-11-22,29.0,17.8,11.4,9.0,6.0,4.0,77,62,37,30.86,30.74,3,0,0,0.00
2013-11-23,32.9,23.8,13.6,16.0,13.7,9.0,84,66,46,30.68,30.36,3,0,0,0.00
2013-11-24,34.1,25.1,19.1,21.0,17.1,14.0,94,72,52,30.39,30.29,2,0,0,0.00
2013-11-25,35.6,27.0,22.4,21.0,19.0,17.0,84,72,53,30.47,30.37,2,0,0,0.00
2013-11-26,35.6,26.7,22.2,27.0,22.3,20.0,100,84,61,30.40,30.20,5,0,0,0.00
2013-11-27,37.3,26.5,21.4,30.0,23.5,21.0,100,90,60,30.24,30.13,2,0,0,0.00
2013-11-28,36.2,24.8,18.6,26.0,21.6,19.0,100,89,52,30.23,30.14,5,0,0,0.00
2013-11-29,30.4,25.9,21.6,30.0,26.0,22.0,100,100,100,30.29,30.19,2,0,0,0.08
2013-11-30,31.0,29.4,27.9,31.0,29.4,28.0,100,100,100,30.27,30.10,2,0,0,0.01
2013-12-1,32.8,31.1,28.8,33.0,31.0,29.0,100,100,100,30.10,29.51,0,0,0,0.37
2013-12-2,33.2,27.1,18.0,33.0,25.7,13.0,100,94,77,30.02,29.49,2,0,0,0.41
2013-12-3,26.1,16.9,12.4,19.0,12.2,7.0,91,82,68,30.32,30.02,0,0,0,0.05
2013-12-4,17.0,12.9,7.2,13.0,7.9,1.0,88,80,70,30.36,30.27,0,0,0,0.07
2013-12-5,13.3,8.7,2.6,6.0,2.4,-4.0,79,75,69,30.38,30.30,0,0,0,0.00
2013-12-6,11.9,2.1,-4.3,1.0,-6.6,-13.0,76,67,55,30.47,30.37,0,0,0,0.00
2013-12-7,10.9,-1.4,-8.2,-4.0,-11.2,-17.0,70,63,49,30.47,30.35,2,0,0,0.00
2013-12-8,5.4,0.1,-5.6,-2.0,-7.4,-14.0,74,70,62,30.57,30.40,0,0,0,0.00
2013-12-9,9.7,7.5,4.3,4.0,1.2,-2.0,79,75,71,30.57,30.42,2,0,0,0.00
2013-12-10,17.7,10.8,3.0,10.0,4.5,-4.0,83,76,66,30.54,30.41,2,0,0,0.00
2013-12-11,20.5,15.7,7.6,18.0,11.7,2.0,92,84,77,30.54,30.36,2,0,0,0.00
2013-12-12,29.0,22.9,18.8,25.0,20.9,16.0,100,92,73,30.36,30.10,0,0,0,0.16
2013-12-13,31.2,25.9,23.3,27.0,25.0,23.0,100,96,77,30.42,30.13,2,0,0,0.06
2013-12-14,29.1,27.0,25.3,29.0,27.1,25.0,100,100,100,30.42,30.28,2,0,0,0.00
2013-12-15,32.2,30.7,29.0,32.0,30.6,29.0,100,100,100,30.28,30.19,2,0,0,0.01
2013-12-16,31.6,30.5,28.8,32.0,30.5,29.0,100,100,100,30.37,30.25,0,0,0,0.01
2013-12-17,30.4,27.5,23.9,30.0,27.5,24.0,100,100,100,30.31,29.94,2,0,0,0.00
2013-12-18,29.4,26.7,16.4,29.0,25.9,12.0,100,97,77,30.05,29.83,2,0,0,0.00
2013-12-19,21.1,14.6,9.0,12.0,7.9,3.0,83,75,62,30.28,30.05,2,1,0,0.00